Time;durP1;ratioP1;P1;durP2;ratioP2;P2;SDS_P1;SDS_P2;PMS_P1;PMS_P2;Temp;Humidity;BMP_temperature;BMP_pressure;BME280_temperature;BME280_humidity;BME280_pressure;Samples;Min_cycle;Max_cycle;Signal;HPM_P1;HPM_P2
2024/01/04 00:03:57;;;;;;;13.03;3.20;;;;;8.40;99180.00;;;;9834554;29;20263;-83
2024/01/04 00:08:58;;;;;;;11.63;2.80;;;;;8.50;99197.00;;;;9862640;29;20299;-83
2024/01/04 00:14:02;;;;;;;14.83;3.00;;;;;8.50;99215.00;;;;9879400;29;20287;-83
2024/01/04 00:19:03;;;;;;;18.20;2.77;;;;;8.60;99217.00;;;;9855693;29;20721;-84
2024/01/04 00:24:06;;;;;;;6.73;3.00;;;;;8.60;99228.00;;;;9868628;29;20243;-81
2024/01/04 00:29:07;;;;;;;13.60;2.83;;;;;8.60;99230.00;;;;9877615;29;20680;-81
2024/01/04 00:34:09;;;;;;;9.87;2.30;;;;;8.50;99246.00;;;;9867812;29;20224;-82
2024/01/04 00:39:10;;;;;;;12.10;2.73;;;;;8.50;99255.00;;;;9864314;29;20313;-81
2024/01/04 00:44:12;;;;;;;13.97;2.93;;;;;8.40;99271.00;;;;9870145;29;20255;-82
2024/01/04 00:49:13;;;;;;;10.23;2.60;;;;;8.40;99272.00;;;;9834030;29;20279;-83
2024/01/04 00:54:14;;;;;;;10.40;2.23;;;;;8.40;99279.00;;;;9845896;29;21519;-82
2024/01/04 00:59:15;;;;;;;11.47;2.40;;;;;8.30;99284.00;;;;9838311;29;20291;-82
2024/01/04 01:04:17;;;;;;;16.90;2.60;;;;;8.30;99287.00;;;;9867165;29;20324;-81
2024/01/04 01:09:18;;;;;;;12.80;2.93;;;;;8.30;99294.00;;;;9887908;29;20266;-81
2024/01/04 01:14:19;;;;;;;16.53;3.50;;;;;8.30;99315.00;;;;9831223;29;20790;-82
2024/01/04 01:19:20;;;;;;;16.70;3.33;;;;;8.30;99334.00;;;;9869492;29;20263;-82
2024/01/04 01:24:22;;;;;;;5.23;1.40;;;;;8.10;99357.00;;;;9836330;29;20237;-81
2024/01/04 01:29:23;;;;;;;2.73;1.23;;;;;7.60;99358.00;;;;9848913;29;20239;-83
2024/01/04 01:34:24;;;;;;;1.20;0.70;;;;;7.30;99361.00;;;;9888183;29;20776;-83
2024/01/04 01:39:25;;;;;;;5.30;1.23;;;;;7.30;99375.00;;;;9846793;29;20323;-84
2024/01/04 01:44:27;;;;;;;1.93;0.90;;;;;7.30;99379.00;;;;9843921;29;20215;-83
2024/01/04 01:49:28;;;;;;;3.53;0.83;;;;;7.30;99384.00;;;;9837252;29;20258;-83
2024/01/04 01:54:30;;;;;;;5.43;1.07;;;;;7.30;99388.00;;;;9833554;29;20254;-83
2024/01/04 01:59:31;;;;;;;1.90;0.77;;;;;7.30;99405.00;;;;9831552;29;20228;-84
2024/01/04 02:04:33;;;;;;;1.13;0.70;;;;;7.30;99414.00;;;;9857396;29;20322;-82
2024/01/04 02:09:34;;;;;;;2.90;1.07;;;;;7.40;99429.00;;;;9890704;29;20234;-83
2024/01/04 02:14:36;;;;;;;2.83;1.50;;;;;7.40;99419.00;;;;9866840;29;20232;-83
2024/01/04 02:19:38;;;;;;;5.30;1.73;;;;;7.40;99438.00;;;;9876906;29;20264;-83
2024/01/04 02:24:39;;;;;;;4.40;2.00;;;;;7.40;99429.00;;;;9861048;29;20230;-81
2024/01/04 02:29:40;;;;;;;6.60;2.30;;;;;7.50;99432.00;;;;9873914;29;20239;-83
2024/01/04 02:34:41;;;;;;;6.00;2.17;;;;;7.50;99447.00;;;;9861161;29;20227;-82
2024/01/04 02:39:42;;;;;;;8.10;2.60;;;;;7.50;99439.00;;;;9889699;29;20346;-81
2024/01/04 02:44:44;;;;;;;14.73;2.97;;;;;7.60;99442.00;;;;9846529;29;20257;-81
2024/01/04 02:49:45;;;;;;;12.37;2.40;;;;;7.80;99444.00;;;;9869685;29;20239;-81
2024/01/04 02:54:46;;;;;;;9.20;2.87;;;;;7.90;99444.00;;;;9856175;29;20246;-82
2024/01/04 02:59:47;;;;;;;7.30;2.63;;;;;8.00;99449.00;;;;9846631;29;20238;-81
2024/01/04 03:04:49;;;;;;;7.33;2.70;;;;;8.00;99453.00;;;;9848404;29;20238;-82
2024/01/04 03:09:50;;;;;;;9.17;2.90;;;;;8.10;99462.00;;;;9867590;29;20246;-81
2024/01/04 03:14:51;;;;;;;11.33;3.63;;;;;8.20;99472.00;;;;9885732;29;20227;-82
2024/01/04 03:19:52;;;;;;;9.50;2.47;;;;;8.20;99485.00;;;;9866466;29;20231;-81
2024/01/04 03:24:53;;;;;;;5.83;2.37;;;;;8.20;99489.00;;;;9852793;29;20231;-81
2024/01/04 03:29:55;;;;;;;14.20;2.97;;;;;8.30;99500.00;;;;9845829;29;20331;-79
2024/01/04 03:34:57;;;;;;;15.53;3.07;;;;;8.30;99506.00;;;;9853812;29;20273;-82
2024/01/04 03:39:58;;;;;;;6.60;2.30;;;;;8.30;99498.00;;;;9869126;29;20308;-81
2024/01/04 03:44:59;;;;;;;9.23;2.37;;;;;8.30;99503.00;;;;9858788;29;20259;-81
2024/01/04 03:50:02;;;;;;;6.43;2.13;;;;;8.20;99510.00;;;;9877910;29;20239;-81
2024/01/04 03:55:04;;;;;;;9.73;2.50;;;;;8.30;99516.00;;;;9855141;29;20236;-79
2024/01/04 04:00:05;;;;;;;5.50;2.20;;;;;8.30;99535.00;;;;9844038;29;20226;-82
2024/01/04 04:05:12;;;;;;;5.20;1.93;;;;;8.30;99545.00;;;;9881970;29;20326;-81
2024/01/04 04:10:14;;;;;;;5.37;2.10;;;;;8.30;99546.00;;;;9878417;29;20266;-80
2024/01/04 04:15:16;;;;;;;13.33;3.20;;;;;8.40;99541.00;;;;9862298;29;20240;-81
2024/01/04 04:20:18;;;;;;;10.03;2.00;;;;;8.30;99550.00;;;;9890587;29;21635;-81
2024/01/04 04:25:19;;;;;;;12.63;2.40;;;;;8.40;99553.00;;;;9867777;29;20235;-80
2024/01/04 04:30:20;;;;;;;6.70;2.33;;;;;8.30;99560.00;;;;9857986;29;20231;-82
2024/01/04 04:35:21;;;;;;;9.40;2.10;;;;;8.30;99569.00;;;;9864330;29;20243;-84
2024/01/04 04:40:23;;;;;;;4.07;1.60;;;;;8.40;99568.00;;;;9874187;29;20270;-82
2024/01/04 04:45:24;;;;;;;7.43;1.93;;;;;8.30;99572.00;;;;9852182;29;20243;-83
2024/01/04 04:50:25;;;;;;;8.70;1.87;;;;;8.30;99575.00;;;;9860445;29;20231;-81
2024/01/04 04:55:26;;;;;;;12.93;2.23;;;;;8.10;99577.00;;;;9850253;29;20314;-82
2024/01/04 05:00:27;;;;;;;8.67;1.87;;;;;8.00;99582.00;;;;9862760;29;20280;-81
2024/01/04 05:05:29;;;;;;;8.13;2.73;;;;;8.00;99574.00;;;;9860709;29;20257;-82
2024/01/04 05:10:30;;;;;;;9.53;1.93;;;;;7.90;99581.00;;;;9835779;29;20299;-83
2024/01/04 05:15:31;;;;;;;7.40;1.53;;;;;7.90;99592.00;;;;9882253;29;20606;-80
2024/01/04 05:20:32;;;;;;;3.90;1.60;;;;;7.90;99601.00;;;;9861972;29;20623;-82
2024/01/04 05:25:34;;;;;;;9.03;1.63;;;;;8.00;99613.00;;;;9887504;29;20321;-82
2024/01/04 05:30:35;;;;;;;5.50;2.07;;;;;8.10;99619.00;;;;9849117;29;20247;-82
2024/01/04 05:35:38;;;;;;;7.07;1.90;;;;;8.20;99616.00;;;;9878382;29;20223;-82
2024/01/04 05:40:39;;;;;;;6.97;1.60;;;;;8.20;99630.00;;;;9866623;29;20714;-80
2024/01/04 05:45:40;;;;;;;7.70;2.27;;;;;8.20;99636.00;;;;9850529;29;20231;-80
2024/01/04 05:50:41;;;;;;;2.93;1.70;;;;;8.20;99627.00;;;;9892418;29;20239;-80
2024/01/04 05:55:42;;;;;;;5.57;2.13;;;;;8.30;99650.00;;;;9863614;29;20639;-80
2024/01/04 06:00:44;;;;;;;12.07;2.10;;;;;8.30;99661.00;;;;9876340;29;20301;-81
2024/01/04 06:05:45;;;;;;;3.77;1.30;;;;;8.30;99660.00;;;;9851529;29;20236;-80
2024/01/04 06:10:46;;;;;;;6.50;2.63;;;;;8.40;99674.00;;;;9837138;29;20247;-80
2024/01/04 06:15:47;;;;;;;9.10;2.37;;;;;8.40;99682.00;;;;9867809;29;20254;-82
2024/01/04 06:20:48;;;;;;;6.33;2.13;;;;;8.40;99688.00;;;;9870861;29;20250;-80
2024/01/04 06:25:50;;;;;;;9.17;2.33;;;;;8.40;99707.00;;;;9865985;29;20795;-80
2024/01/04 06:30:51;;;;;;;8.97;2.93;;;;;8.30;99709.00;;;;9832845;29;20318;-81
2024/01/04 06:35:53;;;;;;;8.03;2.70;;;;;8.20;99724.00;;;;9867527;29;20254;-81
2024/01/04 06:40:58;;;;;;;11.97;3.17;;;;;8.20;99726.00;;;;9854020;29;20242;-81
2024/01/04 06:46:00;;;;;;;10.20;3.43;;;;;8.20;99731.00;;;;9846832;29;20251;-81
2024/01/04 06:51:02;;;;;;;8.90;2.80;;;;;8.20;99736.00;;;;9849029;29;20242;-84
2024/01/04 06:56:04;;;;;;;10.97;3.50;;;;;8.20;99742.00;;;;9864301;29;20239;-85
2024/01/04 07:01:05;;;;;;;15.07;3.70;;;;;8.20;99755.00;;;;9867791;29;20235;-85
2024/01/04 07:06:06;;;;;;;10.60;3.57;;;;;8.20;99760.00;;;;9864403;29;20251;-85
2024/01/04 07:11:08;;;;;;;11.53;3.10;;;;;8.20;99759.00;;;;9837069;29;20322;-86
2024/01/04 07:16:09;;;;;;;7.87;2.73;;;;;8.30;99773.00;;;;9861856;29;20234;-86
2024/01/04 07:21:11;;;;;;;11.80;2.83;;;;;8.30;99775.00;;;;9836350;29;20255;-86
2024/01/04 07:26:12;;;;;;;10.97;3.83;;;;;8.30;99785.00;;;;9834705;29;20311;-86
2024/01/04 07:31:13;;;;;;;8.67;3.53;;;;;8.30;99786.00;;;;9856887;29;20246;-86
2024/01/04 07:36:14;;;;;;;8.97;3.37;;;;;8.40;99801.00;;;;9863202;29;20231;-87
2024/01/04 07:41:15;;;;;;;9.23;2.67;;;;;8.40;99800.00;;;;9847516;29;20236;-85
2024/01/04 07:46:17;;;;;;;7.43;2.30;;;;;8.40;99806.00;;;;9846220;29;20243;-84
2024/01/04 07:51:18;;;;;;;8.30;2.27;;;;;8.40;99807.00;;;;9839762;29;20235;-85
2024/01/04 07:56:19;;;;;;;10.30;2.37;;;;;8.30;99821.00;;;;9835010;29;20370;-86
2024/01/04 08:01:21;;;;;;;12.53;2.93;;;;;8.30;99818.00;;;;9855797;29;20224;-82
2024/01/04 08:06:22;;;;;;;13.30;3.17;;;;;8.30;99818.00;;;;9866751;29;20227;-83
2024/01/04 08:11:23;;;;;;;11.97;2.87;;;;;8.40;99830.00;;;;9855658;29;20834;-82
2024/01/04 08:16:24;;;;;;;10.97;2.87;;;;;8.40;99817.00;;;;9858411;29;20327;-83
2024/01/04 08:21:26;;;;;;;11.87;3.20;;;;;8.40;99826.00;;;;9850020;29;20231;-82
2024/01/04 08:26:27;;;;;;;13.87;3.40;;;;;8.50;99835.00;;;;9833495;29;20235;-83
2024/01/04 08:31:28;;;;;;;19.87;4.00;;;;;8.50;99839.00;;;;9855452;29;20293;-84
2024/01/04 08:36:30;;;;;;;15.73;3.47;;;;;8.60;99843.00;;;;9857054;29;20359;-81
2024/01/04 08:41:32;;;;;;;15.20;3.33;;;;;8.60;99848.00;;;;9878628;29;20322;-83
2024/01/04 08:46:37;;;;;;;15.53;3.87;;;;;8.70;99851.00;;;;9866187;29;20315;-83
2024/01/04 08:51:38;;;;;;;24.90;4.10;;;;;8.60;99853.00;;;;9859595;29;20258;-84
2024/01/04 08:56:39;;;;;;;30.27;6.13;;;;;8.50;99854.00;;;;9879272;29;20852;-83
2024/01/04 09:01:41;;;;;;;25.90;4.17;;;;;8.50;99866.00;;;;9864877;29;20231;-82
2024/01/04 09:06:42;;;;;;;22.33;4.07;;;;;8.60;99869.00;;;;9857319;29;20244;-83
2024/01/04 09:11:48;;;;;;;21.60;5.27;;;;;8.70;99887.00;;;;9868104;29;20330;-82
2024/01/04 09:16:49;;;;;;;28.10;4.40;;;;;8.80;99889.00;;;;9836329;29;20785;-82
2024/01/04 09:21:50;;;;;;;26.00;4.73;;;;;8.80;99890.00;;;;9831530;29;20320;-83
2024/01/04 09:26:52;;;;;;;29.47;5.10;;;;;8.90;99893.00;;;;9871380;29;20247;-82
2024/01/04 09:31:53;;;;;;;32.67;5.73;;;;;8.90;99907.00;;;;9878517;29;20660;-84
2024/01/04 09:36:54;;;;;;;19.27;4.67;;;;;8.90;99908.00;;;;9886763;29;20238;-83
2024/01/04 09:41:56;;;;;;;21.33;4.43;;;;;8.90;99916.00;;;;9833850;29;20231;-83
2024/01/04 09:47:02;;;;;;;26.17;4.83;;;;;8.90;99921.00;;;;9864240;29;20240;-83
2024/01/04 09:52:05;;;;;;;21.47;4.77;;;;;9.20;99936.00;;;;9847346;29;20243;-83
2024/01/04 09:57:08;;;;;;;29.33;5.00;;;;;9.60;99945.00;;;;9878326;29;20292;-83
2024/01/04 10:02:11;;;;;;;26.97;4.60;;;;;9.60;99965.00;;;;9881540;29;20232;-84
2024/01/04 10:07:19;;;;;;;25.73;4.97;;;;;9.50;99955.00;;;;9859613;29;20761;-85
2024/01/04 10:12:21;;;;;;;20.97;3.90;;;;;9.60;99967.00;;;;9862209;29;20338;-84
2024/01/04 10:17:22;;;;;;;19.97;3.67;;;;;9.90;99975.00;;;;9849279;29;20243;-84
2024/01/04 10:22:23;;;;;;;18.67;4.67;;;;;9.90;99968.00;;;;9864614;29;20310;-81
2024/01/04 10:27:25;;;;;;;15.40;4.07;;;;;9.80;99968.00;;;;9842889;29;20232;-81
2024/01/04 10:32:26;;;;;;;19.43;4.30;;;;;10.50;99985.00;;;;9862336;29;20384;-85
2024/01/04 10:37:27;;;;;;;12.67;2.90;;;;;10.60;99982.00;;;;9867404;29;20231;-82
2024/01/04 10:42:30;;;;;;;18.73;3.53;;;;;10.60;99988.00;;;;9874790;29;20599;-82
2024/01/04 10:47:31;;;;;;;15.03;3.53;;;;;10.60;99976.00;;;;9836982;29;20467;-81
2024/01/04 10:52:34;;;;;;;14.07;3.47;;;;;10.60;99977.00;;;;9886647;29;20245;-83
2024/01/04 10:57:37;;;;;;;26.67;4.13;;;;;10.80;99985.00;;;;9874260;29;20231;-82
2024/01/04 11:02:39;;;;;;;16.53;3.80;;;;;11.30;99980.00;;;;9843793;29;20247;-82
2024/01/04 11:07:42;;;;;;;15.60;3.37;;;;;11.10;99986.00;;;;9845226;29;20752;-82
2024/01/04 11:12:45;;;;;;;17.67;3.50;;;;;11.00;99983.00;;;;9860179;29;20246;-82
2024/01/04 11:18:09;;;;;;;15.80;3.80;;;;;11.20;99977.00;;;;9846261;29;20235;-80
2024/01/04 11:23:31;;;;;;;19.47;3.50;;;;;11.40;99970.00;;;;9865130;29;20231;-82
2024/01/04 11:28:34;;;;;;;16.10;3.60;;;;;11.40;99985.00;;;;9862888;29;20235;-83
2024/01/04 11:33:41;;;;;;;13.60;3.10;;;;;11.00;99973.00;;;;9849674;29;20867;-83
2024/01/04 11:38:46;;;;;;;18.97;4.63;;;;;10.80;99957.00;;;;9841011;29;20228;-83
2024/01/04 11:43:49;;;;;;;14.87;3.80;;;;;10.70;99955.00;;;;9882232;29;20227;-83
2024/01/04 11:48:59;;;;;;;20.50;3.83;;;;;10.50;99956.00;;;;9870170;29;20691;-83
2024/01/04 11:54:02;;;;;;;16.83;3.57;;;;;11.30;99964.00;;;;9879472;29;20232;-83
2024/01/04 11:59:12;;;;;;;19.83;3.60;;;;;11.30;99970.00;;;;9863966;29;20334;-83
2024/01/04 12:04:14;;;;;;;14.80;3.30;;;;;11.30;99953.00;;;;9840211;29;20915;-83
2024/01/04 12:09:16;;;;;;;22.27;3.10;;;;;11.30;99951.00;;;;9851711;29;20239;-83
2024/01/04 12:14:20;;;;;;;13.37;3.10;;;;;11.50;99945.00;;;;9865870;29;20242;-83
2024/01/04 12:19:21;;;;;;;20.00;3.13;;;;;11.60;99949.00;;;;9866257;29;20897;-83
2024/01/04 12:24:23;;;;;;;12.73;3.20;;;;;11.60;99944.00;;;;9854790;29;20253;-84
2024/01/04 12:29:25;;;;;;;18.03;3.33;;;;;11.20;99944.00;;;;9837090;29;20238;-83
2024/01/04 12:34:26;;;;;;;16.07;3.30;;;;;11.00;99937.00;;;;9841286;29;20731;-83
2024/01/04 12:39:31;;;;;;;19.93;3.53;;;;;10.70;99933.00;;;;9867850;29;20251;-83
2024/01/04 12:44:34;;;;;;;16.50;3.80;;;;;10.40;99934.00;;;;9869325;29;20307;-83
2024/01/04 12:49:36;;;;;;;17.50;3.40;;;;;11.20;99928.00;;;;9869847;29;20232;-83
2024/01/04 12:54:37;;;;;;;14.97;3.17;;;;;11.20;99937.00;;;;9882641;29;20288;-83
2024/01/04 12:59:38;;;;;;;19.70;4.03;;;;;11.10;99935.00;;;;9849745;29;20239;-83
2024/01/04 13:04:40;;;;;;;14.37;3.23;;;;;11.10;99934.00;;;;9838247;29;20266;-83
2024/01/04 13:09:41;;;;;;;20.00;4.07;;;;;11.10;99933.00;;;;9854820;29;20274;-83
2024/01/04 13:14:42;;;;;;;21.33;4.97;;;;;11.30;99931.00;;;;9852895;29;20224;-83
2024/01/04 13:19:43;;;;;;;13.70;3.80;;;;;12.00;99935.00;;;;9865286;29;20243;-84
2024/01/04 13:24:45;;;;;;;14.73;3.67;;;;;12.10;99944.00;;;;9858079;29;20231;-83
2024/01/04 13:29:46;;;;;;;16.33;3.85;;;;;12.40;99928.00;;;;9870985;29;20243;-84
2024/01/04 13:34:49;;;;;;;14.33;3.07;;;;;11.50;99926.00;;;;9838954;29;21292;-83
2024/01/04 13:39:51;;;;;;;11.43;3.23;;;;;10.80;99925.00;;;;9845897;29;20691;-83
2024/01/04 13:44:52;;;;;;;13.67;3.07;;;;;10.40;99911.00;;;;9868208;29;20235;-83
2024/01/04 13:49:54;;;;;;;12.27;3.70;;;;;10.30;99902.00;;;;9884932;29;20239;-83
2024/01/04 13:54:55;;;;;;;15.07;3.27;;;;;10.40;99900.00;;;;9865586;29;20227;-83
2024/01/04 13:59:56;;;;;;;14.83;3.83;;;;;10.30;99885.00;;;;9864593;29;20219;-82
2024/01/04 14:04:57;;;;;;;19.60;3.60;;;;;10.20;99890.00;;;;9858131;29;20288;-82
2024/01/04 14:09:58;;;;;;;21.70;3.33;;;;;10.30;99890.00;;;;9833863;29;20319;-83
2024/01/04 14:15:01;;;;;;;16.90;3.10;;;;;10.20;99893.00;;;;9834473;29;20227;-84
2024/01/04 14:20:02;;;;;;;6.83;2.13;;;;;10.20;99903.00;;;;9846224;29;20320;-83
2024/01/04 14:25:04;;;;;;;14.83;2.80;;;;;10.10;99904.00;;;;9876614;29;20928;-83
2024/01/04 14:30:06;;;;;;;18.90;3.07;;;;;10.10;99903.00;;;;9846570;29;20239;-82
2024/01/04 14:35:07;;;;;;;12.47;2.80;;;;;10.00;99894.00;;;;9862015;29;20234;-83
2024/01/04 14:40:16;;;;;;;9.27;2.97;;;;;9.90;99903.00;;;;9868051;29;20237;-83
2024/01/04 14:45:17;;;;;;;13.53;2.63;;;;;10.10;99899.00;;;;9848982;29;20243;-83
2024/01/04 14:50:21;;;;;;;13.57;2.67;;;;;10.10;99904.00;;;;9835103;29;20330;-83
2024/01/04 14:55:25;;;;;;;9.70;2.57;;;;;10.00;99914.00;;;;9854564;29;20297;-82
2024/01/04 15:00:27;;;;;;;16.50;2.90;;;;;10.00;99907.00;;;;9851995;29;20263;-83
2024/01/04 15:05:28;;;;;;;11.00;2.70;;;;;9.80;99904.00;;;;9867305;29;20720;-83
2024/01/04 15:10:29;;;;;;;13.20;4.03;;;;;9.50;99891.00;;;;9850031;29;20247;-83
2024/01/04 15:15:31;;;;;;;21.80;3.23;;;;;9.30;99878.00;;;;9891535;29;20895;-82
2024/01/04 15:20:38;;;;;;;11.53;3.80;;;;;9.20;99886.00;;;;9852415;29;20237;-82
2024/01/04 15:25:40;;;;;;;13.70;2.53;;;;;9.00;99884.00;;;;9856244;29;20879;-83
2024/01/04 15:30:41;;;;;;;13.00;3.03;;;;;8.80;99882.00;;;;9864530;29;20239;-83
2024/01/04 15:35:42;;;;;;;12.27;3.07;;;;;8.70;99875.00;;;;9864625;29;20759;-82
2024/01/04 15:40:44;;;;;;;13.43;3.33;;;;;8.60;99877.00;;;;9865670;29;20436;-82
2024/01/04 15:45:45;;;;;;;14.37;3.77;;;;;8.60;99882.00;;;;9837556;29;20318;-83
2024/01/04 15:50:46;;;;;;;9.63;2.73;;;;;8.60;99866.00;;;;9871592;29;20293;-82
2024/01/04 15:55:47;;;;;;;14.70;3.23;;;;;8.60;99873.00;;;;9851187;29;20232;-82
2024/01/04 16:00:50;;;;;;;13.13;3.47;;;;;8.50;99873.00;;;;9834487;29;20247;-82
2024/01/04 16:05:51;;;;;;;20.07;3.53;;;;;8.50;99863.00;;;;9863661;29;20235;-84
2024/01/04 16:10:53;;;;;;;12.87;2.87;;;;;8.50;99859.00;;;;9888160;29;20326;-83
2024/01/04 16:15:54;;;;;;;13.40;3.40;;;;;8.50;99852.00;;;;9870480;29;20227;-82
2024/01/04 16:20:55;;;;;;;14.13;2.40;;;;;8.50;99847.00;;;;9850221;29;20230;-82
2024/01/04 16:25:57;;;;;;;16.27;2.90;;;;;8.50;99839.00;;;;9866160;29;20310;-82
2024/01/04 16:30:58;;;;;;;16.23;3.93;;;;;8.60;99839.00;;;;9863088;29;20352;-83
2024/01/04 16:36:00;;;;;;;14.30;2.33;;;;;8.60;99832.00;;;;9873536;29;20235;-83
2024/01/04 16:41:01;;;;;;;14.33;3.57;;;;;8.50;99831.00;;;;9849039;29;20235;-83
2024/01/04 16:46:03;;;;;;;12.30;2.70;;;;;8.60;99834.00;;;;9854257;29;20232;-83
2024/01/04 16:51:04;;;;;;;8.87;2.60;;;;;8.50;99841.00;;;;9857299;29;20231;-83
2024/01/04 16:56:05;;;;;;;9.80;2.70;;;;;8.50;99837.00;;;;9886153;29;20261;-83
2024/01/04 17:01:07;;;;;;;13.40;2.43;;;;;8.50;99822.00;;;;9878214;29;20707;-82
2024/01/04 17:06:28;;;;;;;9.90;2.37;;;;;8.50;99807.00;;;;9871559;29;20239;-83
2024/01/04 17:11:30;;;;;;;20.93;3.70;;;;;8.50;99771.00;;;;9867305;29;20227;-82
2024/01/04 17:16:31;;;;;;;16.90;3.33;;;;;8.50;99782.00;;;;9847035;29;20227;-81
2024/01/04 17:21:33;;;;;;;15.10;3.40;;;;;8.40;99769.00;;;;9855464;29;20235;-80
2024/01/04 17:26:35;;;;;;;14.07;3.00;;;;;8.40;99757.00;;;;9834091;29;20231;-84
2024/01/04 17:31:36;;;;;;;15.93;4.03;;;;;8.30;99755.00;;;;9866531;29;20910;-80
2024/01/04 17:36:37;;;;;;;14.07;3.63;;;;;8.30;99756.00;;;;9831973;29;20244;-82
2024/01/04 17:41:44;;;;;;;14.10;3.80;;;;;8.30;99764.00;;;;9862497;29;20280;-85
2024/01/04 17:46:50;;;;;;;13.50;3.57;;;;;8.30;99769.00;;;;9851553;29;20277;-81
2024/01/04 17:51:51;;;;;;;10.03;3.43;;;;;8.30;99764.00;;;;9868417;29;20714;-81
2024/01/04 17:56:52;;;;;;;19.10;3.40;;;;;8.40;99747.00;;;;9868805;29;20238;-81
2024/01/04 18:01:54;;;;;;;19.70;4.23;;;;;8.40;99736.00;;;;9867877;29;20242;-81
2024/01/04 18:06:55;;;;;;;14.13;4.93;;;;;8.40;99740.00;;;;9839087;29;20235;-81
2024/01/04 18:11:56;;;;;;;15.10;3.47;;;;;8.40;99728.00;;;;9852187;29;20234;-81
2024/01/04 18:16:58;;;;;;;19.83;3.93;;;;;8.30;99731.00;;;;9884352;29;20817;-81
2024/01/04 18:21:59;;;;;;;12.57;4.00;;;;;8.30;99726.00;;;;9884288;29;20230;-82
2024/01/04 18:27:01;;;;;;;13.70;4.33;;;;;8.30;99722.00;;;;9880321;29;20813;-82
2024/01/04 18:32:03;;;;;;;16.60;3.80;;;;;8.20;99714.00;;;;9862571;29;20247;-82
2024/01/04 18:37:06;;;;;;;19.53;4.93;;;;;8.30;99711.00;;;;9880355;29;20853;-82
2024/01/04 18:42:07;;;;;;;22.70;4.30;;;;;8.30;99709.00;;;;9867390;29;20313;-81
2024/01/04 18:47:10;;;;;;;17.70;4.40;;;;;8.30;99698.00;;;;9857082;29;20235;-82
2024/01/04 18:52:12;;;;;;;16.03;4.03;;;;;8.30;99702.00;;;;9875927;29;20231;-79
2024/01/04 18:57:13;;;;;;;18.57;5.27;;;;;8.30;99696.00;;;;9847803;29;20229;-81
2024/01/04 19:02:14;;;;;;;20.80;5.97;;;;;8.30;99670.00;;;;9844892;29;20243;-79
2024/01/04 19:07:19;;;;;;;19.53;5.47;;;;;8.30;99663.00;;;;9871124;29;20323;-79
2024/01/04 19:12:21;;;;;;;17.50;3.70;;;;;8.30;99666.00;;;;9869918;29;20997;-80
2024/01/04 19:17:22;;;;;;;18.17;4.40;;;;;8.40;99663.00;;;;9842013;29;20235;-80
2024/01/04 19:22:24;;;;;;;15.27;3.57;;;;;8.40;99652.00;;;;9845943;29;20235;-80
2024/01/04 19:27:25;;;;;;;21.47;4.10;;;;;8.40;99642.00;;;;9888513;29;20239;-78
2024/01/04 19:32:26;;;;;;;18.53;4.20;;;;;8.40;99632.00;;;;9861101;29;20243;-79
2024/01/04 19:37:27;;;;;;;22.27;4.37;;;;;8.40;99615.00;;;;9857033;29;20243;-79
2024/01/04 19:42:30;;;;;;;21.37;5.30;;;;;8.50;99617.00;;;;9850809;29;20321;-79
2024/01/04 19:47:31;;;;;;;12.43;3.47;;;;;8.50;99619.00;;;;9842813;29;20313;-79
2024/01/04 19:52:33;;;;;;;16.20;3.77;;;;;8.60;99616.00;;;;9832170;29;20243;-80
2024/01/04 19:57:34;;;;;;;15.43;4.87;;;;;8.60;99609.00;;;;9831741;29;20750;-81
2024/01/04 20:02:35;;;;;;;25.67;4.20;;;;;8.60;99604.00;;;;9864977;29;20247;-81
2024/01/04 20:07:37;;;;;;;17.20;4.70;;;;;8.70;99601.00;;;;9851033;29;20255;-81
2024/01/04 20:12:38;;;;;;;23.07;5.10;;;;;8.70;99599.00;;;;9850994;29;20351;-79
2024/01/04 20:17:39;;;;;;;20.60;5.10;;;;;8.60;99599.00;;;;9870934;29;20235;-81
2024/01/04 20:22:40;;;;;;;17.17;4.33;;;;;8.50;99592.00;;;;9877886;29;20357;-81
2024/01/04 20:27:41;;;;;;;17.00;4.07;;;;;8.50;99583.00;;;;9862794;29;20849;-83
2024/01/04 20:32:44;;;;;;;17.83;4.03;;;;;8.40;99576.00;;;;9879087;29;20239;-81
2024/01/04 20:37:45;;;;;;;16.27;3.97;;;;;8.40;99578.00;;;;9866235;29;20708;-82
2024/01/04 20:42:46;;;;;;;26.30;4.70;;;;;8.40;99555.00;;;;9852473;29;20338;-82
2024/01/04 20:47:47;;;;;;;20.10;4.40;;;;;8.40;99525.00;;;;9832937;29;20234;-83
2024/01/04 20:52:49;;;;;;;17.07;4.03;;;;;8.40;99521.00;;;;9838170;29;20243;-81
2024/01/04 20:57:50;;;;;;;15.50;4.10;;;;;8.40;99512.00;;;;9859586;29;20310;-78
2024/01/04 21:02:51;;;;;;;19.90;4.30;;;;;8.40;99486.00;;;;9858611;29;20326;-83
2024/01/04 21:07:52;;;;;;;27.90;5.57;;;;;8.40;99490.00;;;;9864660;29;20928;-81
2024/01/04 21:12:54;;;;;;;22.73;5.97;;;;;8.40;99477.00;;;;9876896;29;20251;-87
2024/01/04 21:17:55;;;;;;;23.13;3.83;;;;;8.40;99464.00;;;;9850155;29;20396;-87
2024/01/04 21:22:57;;;;;;;18.97;4.23;;;;;8.40;99464.00;;;;9863684;29;20251;-88
2024/01/04 21:27:58;;;;;;;16.93;4.47;;;;;8.40;99469.00;;;;9848720;29;20231;-87
2024/01/04 21:33:01;;;;;;;20.60;4.50;;;;;8.50;99453.00;;;;9849911;29;20247;-88
2024/01/04 21:38:02;;;;;;;19.20;3.90;;;;;8.50;99448.00;;;;9847620;29;20242;-85
2024/01/04 21:43:04;;;;;;;19.57;3.80;;;;;8.60;99450.00;;;;9863270;29;20285;-86
2024/01/04 21:48:07;;;;;;;18.87;3.33;;;;;8.70;99435.00;;;;9877323;29;20710;-85
2024/01/04 21:53:08;;;;;;;18.37;4.73;;;;;8.70;99437.00;;;;9886070;29;20250;-85
2024/01/04 21:58:10;;;;;;;14.67;3.43;;;;;8.80;99433.00;;;;9863448;29;20280;-87
2024/01/04 22:03:11;;;;;;;23.10;4.23;;;;;8.80;99411.00;;;;9845357;29;21939;-84
2024/01/04 22:08:12;;;;;;;16.30;3.70;;;;;8.90;99407.00;;;;9863466;29;20226;-85
2024/01/04 22:13:15;;;;;;;17.67;3.20;;;;;8.90;99405.00;;;;9861016;29;20964;-84
2024/01/04 22:18:17;;;;;;;13.43;4.07;;;;;9.00;99408.00;;;;9863026;29;20300;-84
2024/01/04 22:23:18;;;;;;;15.33;3.60;;;;;9.00;99400.00;;;;9867524;29;20235;-80
2024/01/04 22:28:20;;;;;;;13.30;3.40;;;;;9.10;99392.00;;;;9860632;29;20255;-81
2024/01/04 22:33:21;;;;;;;12.80;3.17;;;;;9.10;99385.00;;;;9835240;29;20235;-82
2024/01/04 22:38:22;;;;;;;11.73;3.50;;;;;9.10;99374.00;;;;9870977;29;20875;-81
2024/01/04 22:43:23;;;;;;;12.63;2.73;;;;;9.10;99359.00;;;;9841754;29;20232;-82
2024/01/04 22:48:24;;;;;;;8.80;2.60;;;;;9.10;99351.00;;;;9844910;29;20230;-81
2024/01/04 22:53:27;;;;;;;12.50;3.20;;;;;9.10;99344.00;;;;9847210;29;20231;-80
2024/01/04 22:58:28;;;;;;;12.90;2.87;;;;;9.10;99337.00;;;;9859471;29;20236;-81
2024/01/04 23:03:29;;;;;;;10.07;2.53;;;;;9.10;99326.00;;;;9835371;29;20255;-82
2024/01/04 23:08:31;;;;;;;10.30;2.57;;;;;9.10;99318.00;;;;9866738;29;20235;-82
2024/01/04 23:13:32;;;;;;;9.63;2.67;;;;;9.20;99311.00;;;;9860267;29;20276;-83
2024/01/04 23:18:33;;;;;;;7.63;2.20;;;;;9.20;99299.00;;;;9865169;29;20231;-82
2024/01/04 23:23:34;;;;;;;13.00;2.60;;;;;9.20;99287.00;;;;9865487;29;20671;-81
2024/01/04 23:28:39;;;;;;;8.40;2.10;;;;;9.20;99286.00;;;;9863615;29;22132;-82
2024/01/04 23:33:40;;;;;;;10.77;1.97;;;;;9.20;99271.00;;;;9887041;29;20258;-89
2024/01/04 23:38:45;;;;;;;7.70;1.90;;;;;9.10;99262.00;;;;9861562;29;20235;-87
2024/01/04 23:43:48;;;;;;;14.33;2.30;;;;;9.00;99256.00;;;;9877351;29;20239;-86
2024/01/04 23:48:50;;;;;;;3.63;1.47;;;;;8.90;99240.00;;;;9875239;29;20734;-87
2024/01/04 23:53:51;;;;;;;9.90;1.87;;;;;8.90;99241.00;;;;9853528;29;20239;-88
2024/01/04 23:58:52;;;;;;;12.00;3.13;;;;;8.90;99237.00;;;;9881026;29;20239;-87
